createdAt,value
2023-02-05T00:01:23.734Z,93.70
2023-02-05T00:03:50.570Z,94.50
2023-02-05T00:06:17.070Z,94.50
2023-02-05T00:08:43.544Z,94.80
2023-02-05T00:11:09.992Z,93.70
2023-02-05T00:13:38.379Z,92.80
2023-02-05T00:16:11.195Z,91.90
2023-02-05T00:18:37.829Z,92.60
2023-02-05T00:21:05.823Z,93.30
2023-02-05T00:23:33.864Z,92.40
2023-02-05T00:26:00.735Z,93.40
2023-02-05T00:28:27.305Z,93.50
2023-02-05T00:30:53.880Z,93.70
2023-02-05T00:33:21.165Z,94.40
2023-02-05T00:35:47.624Z,94.60
2023-02-05T00:38:14.184Z,94.50
2023-02-05T00:40:41.488Z,92.10
2023-02-05T00:43:08.068Z,93.40
2023-02-05T00:45:34.938Z,94.20
2023-02-05T00:48:04.007Z,94.20
2023-02-05T00:50:31.771Z,94.00
2023-02-05T00:52:58.254Z,94.30
2023-02-05T00:55:25.771Z,94.40
2023-02-05T00:57:52.456Z,94.20
2023-02-05T01:00:19.570Z,94.20
2023-02-05T01:02:46.246Z,94.30
2023-02-05T01:05:12.803Z,93.70
2023-02-05T01:07:39.848Z,93.80
2023-02-05T01:10:07.272Z,94.10
2023-02-05T01:12:33.737Z,94.20
2023-02-05T01:15:01.451Z,94.20
2023-02-05T01:17:27.930Z,93.90
2023-02-05T01:19:54.477Z,92.00
2023-02-05T01:22:20.979Z,92.20
2023-02-05T01:24:47.441Z,93.10
2023-02-05T01:27:14.161Z,94.50
2023-02-05T01:29:40.615Z,94.70
2023-02-05T01:32:07.148Z,94.20
2023-02-05T01:34:33.628Z,94.50
2023-02-05T01:37:00.096Z,94.60
2023-02-05T01:39:26.667Z,94.80
2023-02-05T01:41:53.233Z,94.70
2023-02-05T01:44:23.890Z,94.10
2023-02-05T01:46:53.105Z,93.60
2023-02-05T01:49:28.003Z,94.30
2023-02-05T01:52:01.352Z,93.80
2023-02-05T01:54:31.818Z,93.00
2023-02-05T01:57:06.976Z,94.50
2023-02-05T01:59:39.669Z,95.40
2023-02-05T02:02:06.892Z,95.00
2023-02-05T02:04:49.425Z,95.30
2023-02-05T02:07:22.889Z,94.90
2023-02-05T02:09:51.565Z,95.40
2023-02-05T02:12:34.305Z,94.60
2023-02-05T02:15:06.888Z,94.30
2023-02-05T02:17:39.419Z,94.00
2023-02-05T02:20:22.569Z,94.70
2023-02-05T02:23:24.979Z,93.60
2023-02-05T02:27:53.458Z,94.20
2023-02-05T02:31:02.084Z,94.70
2023-02-05T02:33:43.385Z,93.90
2023-02-05T02:36:41.957Z,94.30
2023-02-05T02:39:40.800Z,94.80
2023-02-05T02:42:32.603Z,95.70
2023-02-05T02:45:03.961Z,95.70
2023-02-05T02:47:44.654Z,95.10
2023-02-05T02:50:33.729Z,94.20
2023-02-05T02:53:14.235Z,94.90
2023-02-05T02:55:43.945Z,95.20
2023-02-05T02:58:33.192Z,96.40
2023-02-05T03:01:06.132Z,96.50
2023-02-05T03:03:40.562Z,95.60
2023-02-05T03:06:11.037Z,95.20
2023-02-05T03:08:53.338Z,94.80
2023-02-05T03:11:19.806Z,95.30
2023-02-05T03:13:47.314Z,94.90
2023-02-05T03:16:16.578Z,95.10
2023-02-05T03:18:43.255Z,94.50
2023-02-05T03:21:17.572Z,94.60
2023-02-05T03:23:44.790Z,94.80
2023-02-05T03:26:34.847Z,95.70
2023-02-05T03:29:06.286Z,95.40
2023-02-05T03:32:11.142Z,94.60
2023-02-05T03:36:59.995Z,93.50
2023-02-05T03:39:57.807Z,94.00
2023-02-05T03:43:10.755Z,95.30
2023-02-05T03:48:13.901Z,95.90
2023-02-05T03:52:37.248Z,96.00
2023-02-05T03:57:51.883Z,96.30
2023-02-05T04:00:19.573Z,96.10
2023-02-05T04:02:46.274Z,95.40
2023-02-05T04:05:12.761Z,96.70
2023-02-05T04:07:39.292Z,97.00
2023-02-05T04:10:06.260Z,97.60
2023-02-05T04:12:32.744Z,96.30
2023-02-05T04:14:59.178Z,96.30
2023-02-05T04:17:25.661Z,96.20
2023-02-05T04:19:52.121Z,96.40
2023-02-05T04:22:18.607Z,96.40
2023-02-05T04:24:45.050Z,97.30
2023-02-05T04:27:11.531Z,97.30
2023-02-05T04:29:37.976Z,97.40
2023-02-05T04:32:04.715Z,98.20
2023-02-05T04:34:31.160Z,98.00
2023-02-05T04:36:57.619Z,97.90
2023-02-05T04:39:24.072Z,97.20
2023-02-05T04:41:50.518Z,96.80
2023-02-05T04:44:17.021Z,96.60
2023-02-05T04:46:43.494Z,96.10
2023-02-05T04:49:09.967Z,96.10
2023-02-05T04:51:36.420Z,96.30
2023-02-05T04:54:02.932Z,96.90
2023-02-05T04:56:29.400Z,96.90
2023-02-05T04:58:55.865Z,96.60
2023-02-05T05:01:23.441Z,96.50
2023-02-05T05:03:50.532Z,97.00
2023-02-05T05:06:18.213Z,96.90
2023-02-05T05:08:44.752Z,97.00
2023-02-05T05:11:17.906Z,97.00
2023-02-05T05:13:45.257Z,97.00
2023-02-05T05:16:12.877Z,97.20
2023-02-05T05:18:40.733Z,97.60
2023-02-05T05:21:08.164Z,97.80
2023-02-05T05:23:36.436Z,98.10
2023-02-05T05:26:08.959Z,98.20
2023-02-05T05:28:36.011Z,97.70
2023-02-05T05:31:19.113Z,97.20
2023-02-05T05:33:46.460Z,97.40
2023-02-05T05:36:13.896Z,98.40
2023-02-05T05:38:41.038Z,97.90
2023-02-05T05:41:38.785Z,98.50
2023-02-05T05:44:05.286Z,98.30
2023-02-05T05:46:32.275Z,98.80
2023-02-05T05:49:01.660Z,98.50
2023-02-05T05:51:29.633Z,97.70
2023-02-05T05:53:56.745Z,97.40
2023-02-05T05:56:23.626Z,97.20
2023-02-05T05:58:50.767Z,97.30
2023-02-05T06:01:21.180Z,97.70
2023-02-05T06:03:47.698Z,98.10
2023-02-05T06:06:14.170Z,97.60
2023-02-05T06:08:40.649Z,97.70
2023-02-05T06:11:07.144Z,98.10
2023-02-05T06:13:34.184Z,98.30
2023-02-05T06:16:00.716Z,97.50
2023-02-05T06:18:28.323Z,98.00
2023-02-05T06:20:54.795Z,97.90
2023-02-05T06:23:21.281Z,97.30
2023-02-05T06:25:47.844Z,97.20
2023-02-05T06:28:14.401Z,96.90
2023-02-05T06:30:40.922Z,97.00
2023-02-05T06:33:07.430Z,97.20
2023-02-05T06:35:34.452Z,97.00
2023-02-05T06:38:01.240Z,96.70
2023-02-05T06:40:27.725Z,97.00
2023-02-05T06:42:54.841Z,97.30
2023-02-05T06:45:21.975Z,96.90
2023-02-05T06:47:52.112Z,97.10
2023-02-05T06:50:19.383Z,97.20
2023-02-05T06:52:45.879Z,96.60
2023-02-05T06:55:12.382Z,96.70
2023-02-05T06:57:38.964Z,97.40
2023-02-05T07:00:07.218Z,97.30
2023-02-05T07:02:34.166Z,97.30
2023-02-05T07:05:00.651Z,97.10
2023-02-05T07:07:27.727Z,97.00
2023-02-05T07:09:54.261Z,97.40
2023-02-05T07:12:21.056Z,97.20
2023-02-05T07:14:47.571Z,97.10
2023-02-05T07:17:14.048Z,96.80
2023-02-05T07:19:40.508Z,96.70
2023-02-05T07:22:07.024Z,96.60
2023-02-05T07:24:33.523Z,96.60
2023-02-05T07:26:59.967Z,97.20
2023-02-05T07:29:27.459Z,96.70
2023-02-05T07:31:54.014Z,96.60
2023-02-05T07:34:20.727Z,96.50
2023-02-05T07:36:51.074Z,96.60
2023-02-05T07:39:18.336Z,96.10
2023-02-05T07:41:44.947Z,95.90
2023-02-05T07:44:12.080Z,95.80
2023-02-05T07:46:39.589Z,95.70
2023-02-05T07:49:06.449Z,95.50
2023-02-05T07:51:33.569Z,95.20
2023-02-05T07:54:00.035Z,95.30
2023-02-05T07:56:26.515Z,95.20
2023-02-05T07:58:52.998Z,95.10
2023-02-05T08:01:19.552Z,95.20
2023-02-05T08:03:46.174Z,95.20
2023-02-05T08:06:15.799Z,95.20
2023-02-05T08:08:42.929Z,95.30
2023-02-05T08:11:15.289Z,95.20
2023-02-05T08:13:42.612Z,95.20
2023-02-05T08:16:10.669Z,95.40
2023-02-05T08:18:37.161Z,95.20
2023-02-05T08:21:03.938Z,95.40
2023-02-05T08:23:30.653Z,95.10
2023-02-05T08:25:59.296Z,95.30
2023-02-05T08:28:28.343Z,95.10
2023-02-05T08:30:55.792Z,95.20
2023-02-05T08:33:22.575Z,95.40
2023-02-05T08:35:49.074Z,94.70
2023-02-05T08:38:15.588Z,94.90
2023-02-05T08:40:42.043Z,95.00
2023-02-05T08:43:08.523Z,95.10
2023-02-05T08:45:35.450Z,95.10
2023-02-05T08:48:02.274Z,95.20
2023-02-05T08:50:28.862Z,94.90
2023-02-05T08:52:55.314Z,94.90
2023-02-05T08:55:21.775Z,95.00
2023-02-05T08:57:48.217Z,94.80
2023-02-05T09:00:15.588Z,95.20
2023-02-05T09:02:44.049Z,94.40
2023-02-05T09:05:12.136Z,93.70
2023-02-05T09:07:39.839Z,94.20
2023-02-05T09:10:10.493Z,93.80
2023-02-05T09:12:37.268Z,93.60
2023-02-05T09:15:05.606Z,93.20
2023-02-05T09:17:32.126Z,93.80
2023-02-05T09:19:58.621Z,93.30
2023-02-05T09:22:25.060Z,93.00
2023-02-05T09:24:51.572Z,93.20
2023-02-05T09:27:18.056Z,93.30
2023-02-05T09:29:44.508Z,93.40
2023-02-05T09:32:10.988Z,93.50
2023-02-05T09:34:37.446Z,93.20
2023-02-05T09:37:03.967Z,93.20
2023-02-05T09:40:13.059Z,93.50
2023-02-05T09:45:47.890Z,93.10
2023-02-05T09:50:53.376Z,92.30
2023-02-05T09:53:22.169Z,92.80
2023-02-05T09:55:49.555Z,92.50
2023-02-05T09:58:26.047Z,92.00
2023-02-05T10:01:15.680Z,91.80
2023-02-05T10:03:52.778Z,91.90
2023-02-05T10:08:11.567Z,91.80
2023-02-05T10:10:49.526Z,91.40
2023-02-05T10:13:35.973Z,91.40
2023-02-05T10:16:44.909Z,91.50
2023-02-05T10:20:24.676Z,91.40
2023-02-05T10:26:05.553Z,91.60
2023-02-05T10:29:04.086Z,91.60
2023-02-05T10:33:55.696Z,91.10
2023-02-05T10:36:25.364Z,90.30
2023-02-05T10:38:55.559Z,90.50
2023-02-05T10:41:35.778Z,91.10
2023-02-05T10:44:29.974Z,90.70
2023-02-05T10:47:21.134Z,90.30
2023-02-05T10:50:02.599Z,89.10
2023-02-05T10:52:30.490Z,90.20
2023-02-05T10:54:57.033Z,89.20
2023-02-05T10:57:27.063Z,89.40
2023-02-05T11:00:01.555Z,89.00
2023-02-05T11:02:54.046Z,87.30
2023-02-05T11:05:40.831Z,87.90
2023-02-05T11:08:52.041Z,86.20
2023-02-05T11:11:29.985Z,86.90
2023-02-05T11:14:07.304Z,86.20
2023-02-05T11:16:44.785Z,86.40
2023-02-05T11:19:26.834Z,86.30
2023-02-05T11:21:58.126Z,85.50
2023-02-05T11:24:38.692Z,84.70
2023-02-05T11:27:27.547Z,84.80
2023-02-05T11:29:57.200Z,84.40
2023-02-05T11:32:37.081Z,85.00
2023-02-05T11:36:37.053Z,85.50
2023-02-05T11:39:06.253Z,85.60
2023-02-05T11:41:51.008Z,85.80
2023-02-05T11:44:31.482Z,85.50
2023-02-05T11:47:01.089Z,84.20
2023-02-05T11:49:38.216Z,83.40
2023-02-05T11:52:14.613Z,83.10
2023-02-05T11:54:47.082Z,83.90
2023-02-05T11:57:38.481Z,84.40
2023-02-05T12:01:23.486Z,82.70
2023-02-05T12:04:46.538Z,83.10
2023-02-05T12:07:18.774Z,82.50
2023-02-05T12:09:47.678Z,83.80
2023-02-05T12:12:35.742Z,84.50
2023-02-05T12:15:31.355Z,83.00
2023-02-05T12:19:38.864Z,82.80
2023-02-05T12:26:25.108Z,81.50
2023-02-05T12:29:50.075Z,81.50
2023-02-05T12:35:13.699Z,80.40
2023-02-05T12:38:49.197Z,81.70
2023-02-05T12:44:53.273Z,80.80
2023-02-05T12:49:08.678Z,79.90
2023-02-05T12:56:09.954Z,78.10
2023-02-05T12:58:47.159Z,79.60
2023-02-05T13:01:28.628Z,77.10
2023-02-05T13:04:01.391Z,76.70
2023-02-05T13:06:48.280Z,78.80
2023-02-05T13:09:41.563Z,80.40
2023-02-05T13:12:17.331Z,80.50
2023-02-05T13:15:48.634Z,81.60
2023-02-05T13:18:23.193Z,81.90
2023-02-05T13:21:15.459Z,80.50
2023-02-05T13:24:02.917Z,82.00
2023-02-05T13:26:58.557Z,80.80
2023-02-05T13:29:43.465Z,80.50
2023-02-05T13:32:16.391Z,82.20
2023-02-05T13:34:43.548Z,82.30
2023-02-05T13:40:13.147Z,82.00
2023-02-05T13:45:47.814Z,81.10
2023-02-05T13:51:20.310Z,81.00
2023-02-05T13:58:37.600Z,80.10
2023-02-05T14:01:22.571Z,79.50
2023-02-05T14:04:04.176Z,79.70
2023-02-05T14:06:40.075Z,78.80
2023-02-05T14:09:59.747Z,79.60
2023-02-05T14:12:37.775Z,79.30
2023-02-05T14:17:00.571Z,78.80
2023-02-05T14:19:56.538Z,78.30
2023-02-05T14:22:43.896Z,77.30
2023-02-05T14:26:12.026Z,77.90
2023-02-05T14:28:49.790Z,78.10
2023-02-05T14:35:39.187Z,77.60
2023-02-05T14:38:31.455Z,77.20
2023-02-05T14:41:26.908Z,76.90
2023-02-05T14:44:31.511Z,78.10
2023-02-05T14:47:26.200Z,78.00
2023-02-05T14:50:06.756Z,78.30
2023-02-05T14:52:38.390Z,78.60
2023-02-05T14:56:05.955Z,77.30
2023-02-05T14:58:44.359Z,78.00
2023-02-05T15:01:41.034Z,76.80
2023-02-05T15:04:37.804Z,78.60
2023-02-05T15:07:19.104Z,79.30
2023-02-05T15:10:03.654Z,79.40
2023-02-05T15:13:12.004Z,79.90
2023-02-05T15:15:38.846Z,80.10
2023-02-05T15:18:28.964Z,80.40
2023-02-05T15:20:56.956Z,80.00
2023-02-05T15:23:37.354Z,80.50
2023-02-05T15:26:29.840Z,80.60
2023-02-05T15:29:47.888Z,81.60
2023-02-05T15:33:07.651Z,83.20
2023-02-05T15:35:37.210Z,82.50
2023-02-05T15:41:19.810Z,83.10
2023-02-05T15:44:01.805Z,82.70
2023-02-05T15:46:31.889Z,84.10
2023-02-05T15:48:59.442Z,83.40
2023-02-05T15:51:34.758Z,82.50
2023-02-05T15:54:05.112Z,82.60
2023-02-05T15:56:41.478Z,82.90
2023-02-05T15:59:28.005Z,84.60
2023-02-05T16:02:36.004Z,84.80
2023-02-05T16:05:18.532Z,86.40
2023-02-05T16:07:54.657Z,88.50
2023-02-05T16:10:25.523Z,90.40
2023-02-05T16:13:16.412Z,88.10
2023-02-05T16:16:26.374Z,88.50
2023-02-05T16:19:02.151Z,90.90
2023-02-05T16:21:41.454Z,91.50
2023-02-05T16:24:30.548Z,92.80
2023-02-05T16:27:17.068Z,93.40
2023-02-05T16:29:55.390Z,92.80
2023-02-05T16:32:33.318Z,93.20
2023-02-05T16:35:04.812Z,93.40
2023-02-05T16:37:32.241Z,93.30
2023-02-05T16:40:05.244Z,93.90
2023-02-05T16:43:54.992Z,93.30
2023-02-05T16:46:28.208Z,93.00
2023-02-05T16:49:21.340Z,92.10
2023-02-05T16:51:56.898Z,92.30
2023-02-05T16:54:32.090Z,93.60
2023-02-05T16:57:12.689Z,93.90
2023-02-05T17:02:40.953Z,94.40
2023-02-05T17:05:27.414Z,95.40
2023-02-05T17:08:07.576Z,94.10
2023-02-05T17:10:54.666Z,93.90
2023-02-05T17:15:39.290Z,94.60
2023-02-05T17:20:21.319Z,94.90
2023-02-05T17:24:41.074Z,95.40
2023-02-05T17:27:27.622Z,93.10
2023-02-05T17:29:55.076Z,93.80
2023-02-05T17:32:22.288Z,95.20
2023-02-05T17:34:48.881Z,94.60
2023-02-05T17:37:15.703Z,95.10
2023-02-05T17:39:42.162Z,95.40
2023-02-05T17:42:25.588Z,95.40
2023-02-05T17:44:52.980Z,95.40
2023-02-05T17:47:19.681Z,95.10
2023-02-05T17:49:46.958Z,95.20
2023-02-05T17:52:16.749Z,95.20
2023-02-05T17:54:47.220Z,95.80
2023-02-05T17:57:20.571Z,95.50
2023-02-05T17:59:49.363Z,95.20
2023-02-05T18:02:16.692Z,95.60
2023-02-05T18:04:44.416Z,96.30
2023-02-05T18:07:40.548Z,97.00
2023-02-05T18:10:11.696Z,97.10
2023-02-05T18:12:38.747Z,97.10
2023-02-05T18:15:05.700Z,97.40
2023-02-05T18:17:32.159Z,97.70
2023-02-05T18:19:58.651Z,97.30
2023-02-05T18:22:25.766Z,97.00
2023-02-05T18:24:52.217Z,97.30
2023-02-05T18:27:19.281Z,97.20
2023-02-05T18:29:45.839Z,97.40
2023-02-05T18:32:12.308Z,97.00
2023-02-05T18:34:39.332Z,97.70
2023-02-05T18:37:06.162Z,97.20
2023-02-05T18:39:32.688Z,96.70
2023-02-05T18:41:59.171Z,95.40
2023-02-05T18:44:26.451Z,96.30
2023-02-05T18:46:53.544Z,95.70
2023-02-05T18:49:20.199Z,96.30
2023-02-05T18:51:46.677Z,95.90
2023-02-05T18:54:13.201Z,95.50
2023-02-05T18:56:39.660Z,96.00
2023-02-05T18:59:09.996Z,96.40
2023-02-05T19:01:39.004Z,96.10
2023-02-05T19:04:10.006Z,95.70
2023-02-05T19:06:36.539Z,96.90
2023-02-05T19:09:03.753Z,95.80
2023-02-05T19:11:30.813Z,96.20
2023-02-05T19:14:04.253Z,95.50
2023-02-05T19:16:33.591Z,95.80
2023-02-05T19:19:01.686Z,94.80
2023-02-05T19:21:29.838Z,96.10
2023-02-05T19:24:06.299Z,95.40
2023-02-05T19:26:36.077Z,95.40
2023-02-05T19:29:07.624Z,95.60
2023-02-05T19:31:36.683Z,95.80
2023-02-05T19:34:04.358Z,95.40
2023-02-05T19:36:32.127Z,96.00
2023-02-05T19:39:07.740Z,96.90
2023-02-05T19:41:36.660Z,97.90
2023-02-05T19:44:07.437Z,98.90
2023-02-05T19:46:43.891Z,98.60
2023-02-05T19:49:17.473Z,98.40
2023-02-05T19:51:50.233Z,97.90
2023-02-05T19:54:20.095Z,98.10
2023-02-05T19:56:48.206Z,98.40
2023-02-05T19:59:15.972Z,99.10
2023-02-05T20:01:45.423Z,99.20
2023-02-05T20:04:23.489Z,97.20
2023-02-05T20:06:54.071Z,97.40
2023-02-05T20:09:20.549Z,97.90
2023-02-05T20:11:51.743Z,98.00
2023-02-05T20:14:19.050Z,97.70
2023-02-05T20:16:46.636Z,98.30
2023-02-05T20:19:16.601Z,98.50
2023-02-05T20:21:44.633Z,98.60
2023-02-05T20:24:11.777Z,97.60
2023-02-05T20:26:38.954Z,97.00
2023-02-05T20:29:24.030Z,96.20
2023-02-05T20:31:52.473Z,95.60
2023-02-05T20:34:25.457Z,95.30
2023-02-05T20:36:56.798Z,95.90
2023-02-05T20:39:27.921Z,96.80
2023-02-05T20:41:57.086Z,97.90
2023-02-05T20:44:28.956Z,97.30
2023-02-05T20:46:55.891Z,97.80
2023-02-05T20:49:22.762Z,98.20
2023-02-05T20:51:49.328Z,97.40
2023-02-05T20:54:15.801Z,98.00
2023-02-05T20:56:42.275Z,97.90
2023-02-05T20:59:11.502Z,98.40
2023-02-05T21:01:39.523Z,99.30
2023-02-05T21:04:09.098Z,99.30
2023-02-05T21:06:39.178Z,99.60
2023-02-05T21:09:08.218Z,99.40
2023-02-05T21:11:36.305Z,99.30
2023-02-05T21:14:03.755Z,98.90
2023-02-05T21:16:32.876Z,98.90
2023-02-05T21:18:59.372Z,98.70
2023-02-05T21:21:30.488Z,99.00
2023-02-05T21:24:02.956Z,99.20
2023-02-05T21:26:36.188Z,98.90
2023-02-05T21:29:13.980Z,99.20
2023-02-05T21:31:45.595Z,98.90
2023-02-05T21:34:22.804Z,98.50
2023-02-05T21:36:50.654Z,98.60
2023-02-05T21:39:19.623Z,98.90
2023-02-05T21:41:47.024Z,98.90
2023-02-05T21:44:14.063Z,99.50
2023-02-05T21:46:40.912Z,99.40
2023-02-05T21:49:07.769Z,99.40
2023-02-05T21:51:35.017Z,99.40
2023-02-05T21:54:05.040Z,99.60
2023-02-05T21:56:38.572Z,99.90
2023-02-05T21:59:06.073Z,99.60
2023-02-05T22:01:35.188Z,99.80
2023-02-05T22:04:07.442Z,99.90
2023-02-05T22:06:35.900Z,99.20
2023-02-05T22:09:06.377Z,99.20
2023-02-05T22:11:34.053Z,98.90
2023-02-05T22:14:00.631Z,98.60
2023-02-05T22:16:31.331Z,98.30
2023-02-05T22:19:00.251Z,98.90
2023-02-05T22:21:39.235Z,99.20
2023-02-05T22:24:08.007Z,99.30
2023-02-05T22:26:38.418Z,99.40
2023-02-05T22:29:07.457Z,99.90
2023-02-05T22:31:35.048Z,99.70
2023-02-05T22:34:02.044Z,99.70
2023-02-05T22:36:31.523Z,99.10
2023-02-05T22:38:58.443Z,99.10
2023-02-05T22:41:32.113Z,99.20
2023-02-05T22:44:01.110Z,99.40
2023-02-05T22:46:31.928Z,99.90
2023-02-05T22:49:01.600Z,99.70
2023-02-05T22:51:35.809Z,99.70
2023-02-05T22:54:03.457Z,99.70
2023-02-05T22:56:30.731Z,99.80
2023-02-05T22:58:57.865Z,99.90
2023-02-05T23:01:31.051Z,99.90
2023-02-05T23:03:58.599Z,99.90
2023-02-05T23:06:29.989Z,99.90
2023-02-05T23:09:07.297Z,99.90
2023-02-05T23:11:35.365Z,99.90
2023-02-05T23:14:04.473Z,99.90
2023-02-05T23:16:38.647Z,99.80
2023-02-05T23:19:19.031Z,99.90
2023-02-05T23:21:46.595Z,99.90
2023-02-05T23:24:13.329Z,99.90
2023-02-05T23:26:44.528Z,99.90
2023-02-05T23:29:15.155Z,99.90
2023-02-05T23:31:42.351Z,99.90
2023-02-05T23:34:09.682Z,99.90
2023-02-05T23:36:36.344Z,99.90
2023-02-05T23:39:03.280Z,99.90
2023-02-05T23:41:35.932Z,99.90
2023-02-05T23:44:13.192Z,99.90
2023-02-05T23:46:42.140Z,99.90
2023-02-05T23:49:10.267Z,99.90
2023-02-05T23:51:38.032Z,99.90
2023-02-05T23:54:07.297Z,99.90
2023-02-05T23:56:33.837Z,99.90
2023-02-05T23:59:00.896Z,99.90
